createdAt,value
2023-05-17T00:00:47.031Z,79.00
2023-05-17T00:02:49.690Z,79.80
2023-05-17T00:04:53.508Z,79.67
2023-05-17T00:06:56.365Z,79.12
2023-05-17T00:08:59.056Z,79.52
2023-05-17T00:11:01.827Z,79.34
2023-05-17T00:13:05.880Z,79.34
2023-05-17T00:15:09.255Z,79.20
2023-05-17T00:17:11.971Z,79.93
2023-05-17T00:19:14.890Z,81.30
2023-05-17T00:21:17.834Z,82.05
2023-05-17T00:23:20.506Z,81.88
2023-05-17T00:25:23.170Z,82.68
2023-05-17T00:27:25.878Z,82.88
2023-05-17T00:29:29.907Z,82.84
2023-05-17T00:31:32.597Z,83.61
2023-05-17T00:33:35.318Z,83.66
2023-05-17T00:35:37.946Z,83.73
2023-05-17T00:37:40.651Z,84.96
2023-05-17T00:39:43.544Z,85.74
2023-05-17T00:41:46.344Z,84.93
2023-05-17T00:43:49.045Z,84.69
2023-05-17T00:45:53.107Z,85.77
2023-05-17T00:47:55.933Z,85.25
2023-05-17T00:49:58.799Z,85.94
2023-05-17T00:52:01.867Z,85.78
2023-05-17T00:54:05.582Z,85.83
2023-05-17T00:56:08.615Z,86.17
2023-05-17T00:58:11.663Z,85.37
2023-05-17T01:00:15.096Z,85.17
2023-05-17T01:02:19.188Z,84.48
2023-05-17T01:04:22.053Z,85.09
2023-05-17T01:06:25.135Z,84.50
2023-05-17T01:08:27.852Z,84.90
2023-05-17T01:10:38.316Z,84.04
2023-05-17T01:12:51.837Z,85.23
2023-05-17T01:15:06.334Z,85.80
2023-05-17T01:17:15.604Z,84.89
2023-05-17T01:19:44.389Z,83.94
2023-05-17T01:22:04.329Z,84.99
2023-05-17T01:24:21.942Z,84.55
2023-05-17T01:26:40.180Z,84.77
2023-05-17T01:28:46.132Z,85.61
2023-05-17T01:30:52.462Z,85.21
2023-05-17T01:32:57.912Z,84.42
2023-05-17T01:35:00.753Z,84.21
2023-05-17T01:37:03.399Z,83.67
2023-05-17T01:39:06.069Z,83.75
2023-05-17T01:41:15.037Z,84.10
2023-05-17T01:43:26.040Z,83.73
2023-05-17T01:45:34.679Z,85.00
2023-05-17T01:47:44.287Z,84.76
2023-05-17T01:49:54.066Z,85.96
2023-05-17T01:51:59.781Z,85.06
2023-05-17T01:54:05.062Z,85.16
2023-05-17T01:56:11.018Z,85.34
2023-05-17T01:58:14.177Z,85.75
2023-05-17T02:00:20.419Z,86.42
2023-05-17T02:02:23.884Z,87.10
2023-05-17T02:04:26.555Z,87.07
2023-05-17T02:06:29.603Z,87.81
2023-05-17T02:08:32.376Z,88.66
2023-05-17T02:10:35.074Z,88.11
2023-05-17T02:12:37.731Z,88.31
2023-05-17T02:14:40.540Z,87.74
2023-05-17T02:16:44.576Z,88.57
2023-05-17T02:18:47.326Z,88.16
2023-05-17T02:20:50.141Z,88.47
2023-05-17T02:22:52.979Z,88.97
2023-05-17T02:24:55.942Z,88.66
2023-05-17T02:26:58.778Z,88.64
2023-05-17T02:29:01.513Z,89.55
2023-05-17T02:31:04.309Z,89.96
2023-05-17T02:33:08.753Z,89.91
2023-05-17T02:35:11.553Z,89.71
2023-05-17T02:37:14.296Z,90.48
2023-05-17T02:39:17.074Z,90.17
2023-05-17T02:41:19.804Z,90.39
2023-05-17T02:43:22.569Z,92.48
2023-05-17T02:45:25.227Z,92.81
2023-05-17T02:47:28.116Z,93.04
2023-05-17T02:49:32.285Z,93.67
2023-05-17T02:51:35.015Z,94.33
2023-05-17T02:53:37.740Z,93.76
2023-05-17T02:55:40.459Z,92.64
2023-05-17T02:57:43.155Z,93.48
2023-05-17T02:59:45.906Z,95.25
2023-05-17T03:01:49.815Z,95.97
2023-05-17T03:03:52.706Z,96.37
2023-05-17T03:06:01.285Z,96.03
2023-05-17T03:08:04.142Z,96.71
2023-05-17T03:10:08.049Z,96.35
2023-05-17T03:12:11.422Z,96.70
2023-05-17T03:14:14.188Z,98.35
2023-05-17T03:16:16.870Z,97.92
2023-05-17T03:18:19.649Z,98.16
2023-05-17T03:20:22.567Z,98.99
2023-05-17T03:22:26.672Z,99.19
2023-05-17T03:24:29.312Z,100.00
2023-05-17T03:26:33.446Z,99.30
2023-05-17T03:28:36.168Z,99.65
2023-05-17T03:30:38.999Z,99.38
2023-05-17T03:32:42.194Z,100.00
2023-05-17T03:34:45.009Z,100.00
2023-05-17T03:36:47.963Z,100.00
2023-05-17T03:38:52.188Z,100.00
2023-05-17T03:40:55.942Z,100.00
2023-05-17T03:42:58.678Z,100.00
2023-05-17T03:45:01.533Z,100.00
2023-05-17T03:47:04.230Z,100.00
2023-05-17T03:49:07.061Z,100.00
2023-05-17T03:51:10.138Z,100.00
2023-05-17T03:53:13.054Z,100.00
2023-05-17T03:55:17.184Z,100.00
2023-05-17T03:57:20.795Z,100.00
2023-05-17T03:59:23.653Z,100.00
2023-05-17T04:01:26.393Z,100.00
2023-05-17T04:03:29.205Z,100.00
2023-05-17T04:05:32.825Z,100.00
2023-05-17T04:07:35.561Z,100.00
2023-05-17T04:09:38.197Z,100.00
2023-05-17T04:11:42.576Z,100.00
2023-05-17T04:13:45.306Z,100.00
2023-05-17T04:15:47.972Z,100.00
2023-05-17T04:17:50.983Z,100.00
2023-05-17T04:19:53.846Z,100.00
2023-05-17T04:21:56.659Z,100.00
2023-05-17T04:23:59.472Z,100.00
2023-05-17T04:26:03.152Z,99.93
2023-05-17T04:28:07.211Z,99.88
2023-05-17T04:30:10.824Z,99.85
2023-05-17T04:32:14.184Z,100.00
2023-05-17T04:34:16.895Z,99.54
2023-05-17T04:36:19.653Z,98.90
2023-05-17T04:38:26.806Z,98.05
2023-05-17T04:40:37.973Z,95.41
2023-05-17T04:42:42.738Z,93.17
2023-05-17T04:44:46.872Z,92.20
2023-05-17T04:46:49.632Z,90.56
2023-05-17T04:48:53.361Z,89.15
2023-05-17T04:50:56.216Z,88.48
2023-05-17T04:52:59.498Z,87.19
2023-05-17T04:55:03.270Z,87.76
2023-05-17T04:57:06.450Z,90.20
2023-05-17T04:59:09.214Z,90.02
2023-05-17T05:01:13.256Z,88.36
2023-05-17T05:03:15.993Z,88.01
2023-05-17T05:05:19.739Z,85.52
2023-05-17T05:07:22.423Z,87.13
2023-05-17T05:09:25.083Z,87.90
2023-05-17T05:11:27.821Z,88.93
2023-05-17T05:13:30.999Z,88.63
2023-05-17T05:15:33.903Z,90.16
2023-05-17T05:17:38.056Z,91.81
2023-05-17T05:19:40.879Z,90.92
2023-05-17T05:21:46.046Z,92.17
2023-05-17T05:23:48.757Z,92.52
2023-05-17T05:25:51.762Z,93.06
2023-05-17T05:27:54.476Z,91.35
2023-05-17T05:29:57.190Z,92.07
2023-05-17T05:31:59.883Z,91.96
2023-05-17T05:34:04.284Z,91.24
2023-05-17T05:36:07.864Z,89.42
2023-05-17T05:38:10.645Z,90.84
2023-05-17T05:40:14.366Z,90.26
2023-05-17T05:42:17.028Z,89.74
2023-05-17T05:44:19.879Z,90.65
2023-05-17T05:46:22.640Z,90.45
2023-05-17T05:48:25.551Z,90.12
2023-05-17T05:50:29.923Z,90.38
2023-05-17T05:52:32.899Z,90.50
2023-05-17T05:54:35.604Z,90.33
2023-05-17T05:56:38.272Z,90.50
2023-05-17T05:58:40.969Z,90.96
2023-05-17T06:00:43.700Z,90.04
2023-05-17T06:02:46.936Z,89.10
2023-05-17T06:04:49.844Z,88.21
2023-05-17T06:06:55.724Z,87.13
2023-05-17T06:08:59.789Z,85.78
2023-05-17T06:11:02.661Z,84.68
2023-05-17T06:13:05.384Z,83.67
2023-05-17T06:15:09.512Z,81.88
2023-05-17T06:17:12.242Z,79.84
2023-05-17T06:19:15.169Z,80.53
2023-05-17T06:21:18.528Z,79.49
2023-05-17T06:23:22.707Z,77.56
2023-05-17T06:25:25.381Z,79.10
2023-05-17T06:27:28.116Z,76.26
2023-05-17T06:29:30.769Z,79.15
2023-05-17T06:31:33.472Z,78.74
2023-05-17T06:33:36.246Z,76.62
2023-05-17T06:35:54.839Z,77.99
2023-05-17T06:37:58.675Z,80.75
2023-05-17T06:40:15.485Z,77.64
2023-05-17T06:42:19.643Z,80.67
2023-05-17T06:44:22.356Z,79.57
2023-05-17T06:46:25.141Z,82.39
2023-05-17T06:48:27.898Z,79.84
2023-05-17T06:50:32.203Z,79.31
2023-05-17T06:52:35.946Z,79.00
2023-05-17T06:54:38.645Z,77.57
2023-05-17T06:56:44.096Z,74.99
2023-05-17T06:58:46.840Z,74.95
2023-05-17T07:00:49.685Z,73.03
2023-05-17T07:02:52.866Z,71.47
2023-05-17T07:04:56.833Z,72.42
2023-05-17T07:06:59.578Z,73.26
2023-05-17T07:09:02.316Z,71.63
2023-05-17T07:11:05.262Z,73.61
2023-05-17T07:13:09.368Z,72.35
2023-05-17T07:15:12.682Z,70.22
2023-05-17T07:17:15.412Z,66.30
2023-05-17T07:19:18.302Z,69.26
2023-05-17T07:21:21.330Z,69.97
2023-05-17T07:23:24.067Z,70.21
2023-05-17T07:25:26.981Z,72.78
2023-05-17T07:27:29.880Z,69.62
2023-05-17T07:29:33.947Z,69.14
2023-05-17T07:31:36.833Z,69.65
2023-05-17T07:33:39.748Z,74.55
2023-05-17T07:35:42.439Z,74.36
2023-05-17T07:37:45.972Z,75.53
2023-05-17T07:39:48.692Z,75.67
2023-05-17T07:41:51.582Z,73.58
2023-05-17T07:43:54.315Z,74.24
2023-05-17T07:45:58.658Z,71.60
2023-05-17T07:48:01.492Z,75.92
2023-05-17T07:50:04.706Z,73.29
2023-05-17T07:52:07.703Z,72.33
2023-05-17T07:54:10.415Z,69.17
2023-05-17T07:56:13.099Z,68.92
2023-05-17T07:58:15.928Z,68.92
2023-05-17T08:00:19.812Z,71.02
2023-05-17T08:02:23.844Z,71.60
2023-05-17T08:04:26.640Z,67.54
2023-05-17T08:06:29.407Z,65.23
2023-05-17T08:08:32.135Z,63.02
2023-05-17T08:10:36.008Z,65.75
2023-05-17T08:12:38.691Z,63.39
2023-05-17T08:14:41.380Z,66.25
2023-05-17T08:16:44.252Z,61.69
2023-05-17T08:18:48.473Z,63.74
2023-05-17T08:20:51.362Z,62.06
2023-05-17T08:22:56.090Z,59.66
2023-05-17T08:24:58.808Z,60.32
2023-05-17T08:27:02.137Z,61.78
2023-05-17T08:29:05.738Z,64.16
2023-05-17T08:31:08.512Z,63.27
2023-05-17T08:33:12.037Z,60.04
2023-05-17T08:35:16.092Z,61.45
2023-05-17T08:37:19.012Z,62.46
2023-05-17T08:39:22.054Z,60.82
2023-05-17T08:41:25.816Z,63.38
2023-05-17T08:43:29.261Z,62.05
2023-05-17T08:45:32.401Z,65.62
2023-05-17T08:47:37.929Z,62.66
2023-05-17T08:49:40.852Z,63.35
2023-05-17T08:51:47.653Z,64.62
2023-05-17T08:53:51.146Z,64.45
2023-05-17T08:56:02.395Z,64.41
2023-05-17T08:58:07.161Z,64.54
2023-05-17T09:00:14.469Z,64.55
2023-05-17T09:02:17.598Z,64.67
2023-05-17T09:04:20.567Z,68.39
2023-05-17T09:06:25.046Z,73.53
2023-05-17T09:08:32.864Z,72.38
2023-05-17T09:10:35.684Z,73.50
2023-05-17T09:12:38.413Z,75.13
2023-05-17T09:14:41.066Z,74.51
2023-05-17T09:16:44.615Z,74.33
2023-05-17T09:18:54.810Z,69.66
2023-05-17T09:21:02.609Z,69.05
2023-05-17T09:23:05.459Z,67.62
2023-05-17T09:25:10.290Z,66.49
2023-05-17T09:27:16.848Z,67.40
2023-05-17T09:29:19.374Z,68.52
2023-05-17T09:31:22.160Z,67.63
2023-05-17T09:33:24.870Z,64.88
2023-05-17T09:35:31.868Z,67.72
2023-05-17T09:37:34.638Z,67.02
2023-05-17T09:39:37.989Z,68.40
2023-05-17T09:41:48.038Z,68.69
2023-05-17T09:43:51.458Z,69.27
2023-05-17T09:45:58.660Z,69.26
2023-05-17T09:48:13.768Z,67.02
2023-05-17T09:50:19.751Z,64.25
2023-05-17T09:52:22.701Z,63.36
2023-05-17T09:54:25.392Z,64.55
2023-05-17T09:56:30.088Z,65.90
2023-05-17T09:58:37.193Z,64.58
2023-05-17T10:00:40.548Z,65.39
2023-05-17T10:02:47.119Z,65.76
2023-05-17T10:04:51.758Z,63.40
2023-05-17T10:06:55.006Z,66.16
2023-05-17T10:09:00.058Z,63.80
2023-05-17T10:11:08.011Z,63.59
2023-05-17T10:13:14.000Z,62.69
2023-05-17T10:15:18.557Z,60.99
2023-05-17T10:17:21.984Z,59.41
2023-05-17T10:19:26.408Z,60.50
2023-05-17T10:21:29.963Z,59.94
2023-05-17T10:23:32.990Z,61.54
2023-05-17T10:25:36.694Z,62.29
2023-05-17T10:27:39.660Z,61.38
2023-05-17T10:29:42.770Z,60.17
2023-05-17T10:31:47.887Z,59.04
2023-05-17T10:33:52.557Z,57.72
2023-05-17T10:35:57.234Z,57.61
2023-05-17T10:37:59.988Z,55.47
2023-05-17T10:40:03.010Z,56.68
2023-05-17T10:42:14.961Z,54.26
2023-05-17T10:44:18.809Z,57.28
2023-05-17T10:46:22.313Z,58.58
2023-05-17T10:48:30.997Z,58.28
2023-05-17T10:50:33.901Z,57.89
2023-05-17T10:52:40.144Z,56.80
2023-05-17T10:54:44.272Z,54.84
2023-05-17T10:56:51.143Z,55.60
2023-05-17T10:59:22.710Z,55.26
2023-05-17T11:01:56.390Z,55.11
2023-05-17T11:04:25.883Z,55.63
2023-05-17T11:06:36.670Z,54.67
2023-05-17T11:08:46.180Z,55.28
2023-05-17T11:11:11.455Z,57.42
2023-05-17T11:13:23.767Z,57.64
2023-05-17T11:15:26.798Z,57.71
2023-05-17T11:17:36.704Z,59.26
2023-05-17T11:19:49.925Z,60.05
2023-05-17T11:21:52.715Z,59.25
2023-05-17T11:23:57.420Z,60.40
2023-05-17T11:26:16.219Z,59.58
2023-05-17T11:28:21.408Z,58.86
2023-05-17T11:30:26.720Z,57.47
2023-05-17T11:32:30.195Z,59.16
2023-05-17T11:34:34.843Z,59.26
2023-05-17T11:36:52.227Z,59.56
2023-05-17T11:39:11.917Z,60.41
2023-05-17T11:43:27.342Z,61.41
2023-05-17T11:45:36.429Z,62.49
2023-05-17T11:47:43.122Z,63.76
2023-05-17T11:49:46.543Z,65.65
2023-05-17T11:51:51.311Z,65.49
2023-05-17T11:53:56.002Z,66.19
2023-05-17T11:56:03.296Z,65.54
2023-05-17T11:58:08.117Z,66.51
2023-05-17T12:00:12.219Z,66.35
2023-05-17T12:02:27.677Z,65.73
2023-05-17T12:04:32.622Z,64.34
2023-05-17T12:06:36.557Z,64.73
2023-05-17T12:08:44.253Z,64.67
2023-05-17T12:10:49.419Z,64.43
2023-05-17T12:12:52.319Z,63.74
2023-05-17T12:14:55.034Z,63.66
2023-05-17T12:17:02.499Z,63.93
2023-05-17T12:19:05.319Z,63.63
2023-05-17T12:21:09.143Z,64.59
2023-05-17T12:23:11.872Z,64.39
2023-05-17T12:25:23.551Z,63.41
2023-05-17T12:27:27.424Z,62.67
2023-05-17T12:29:30.970Z,62.88
2023-05-17T12:31:35.735Z,62.74
2023-05-17T12:33:41.277Z,62.28
2023-05-17T12:35:44.294Z,61.56
2023-05-17T12:37:47.246Z,62.36
2023-05-17T12:39:50.075Z,62.90
2023-05-17T12:41:54.724Z,61.35
2023-05-17T12:44:13.858Z,60.87
2023-05-17T12:46:20.398Z,61.82
2023-05-17T12:48:27.217Z,61.49
2023-05-17T12:50:31.321Z,60.58
2023-05-17T12:52:37.170Z,63.02
2023-05-17T12:54:40.758Z,62.05
2023-05-17T12:56:44.629Z,61.63
2023-05-17T12:59:06.113Z,63.31
2023-05-17T13:01:13.628Z,64.47
2023-05-17T13:03:16.518Z,65.35
2023-05-17T13:05:21.567Z,66.69
2023-05-17T13:07:25.115Z,66.30
2023-05-17T13:09:30.819Z,66.28
2023-05-17T13:11:35.964Z,67.15
2023-05-17T13:13:38.909Z,65.86
2023-05-17T13:15:46.325Z,66.82
2023-05-17T13:17:51.072Z,64.90
2023-05-17T13:19:54.025Z,63.50
2023-05-17T13:21:56.822Z,63.87
2023-05-17T13:23:59.488Z,63.87
2023-05-17T13:26:02.149Z,62.61
2023-05-17T13:28:04.969Z,64.11
2023-05-17T13:30:09.297Z,63.93
2023-05-17T13:32:14.259Z,64.90
2023-05-17T13:34:16.964Z,64.76
2023-05-17T13:36:19.679Z,62.97
2023-05-17T13:38:22.309Z,64.69
2023-05-17T13:40:24.976Z,65.32
2023-05-17T13:42:27.739Z,65.82
2023-05-17T13:44:30.591Z,66.79
2023-05-17T13:46:33.506Z,66.25
2023-05-17T13:48:39.175Z,66.54
2023-05-17T13:50:43.876Z,66.66
2023-05-17T13:52:46.629Z,67.15
2023-05-17T13:54:49.269Z,65.10
2023-05-17T13:56:52.221Z,64.68
2023-05-17T13:58:54.934Z,64.79
2023-05-17T14:00:57.748Z,65.68
2023-05-17T14:03:00.554Z,64.99
2023-05-17T14:05:05.444Z,64.38
2023-05-17T14:07:08.172Z,63.52
2023-05-17T14:09:11.807Z,64.30
2023-05-17T14:11:14.541Z,62.33
2023-05-17T14:13:17.262Z,62.91
2023-05-17T14:15:19.950Z,62.98
2023-05-17T14:17:22.684Z,63.15
2023-05-17T14:19:25.479Z,63.13
2023-05-17T14:21:29.670Z,62.03
2023-05-17T14:23:32.344Z,62.19
2023-05-17T14:25:35.018Z,61.81
2023-05-17T14:27:37.818Z,61.90
2023-05-17T14:29:40.630Z,62.26
2023-05-17T14:31:43.405Z,62.96
2023-05-17T14:33:46.227Z,62.70
2023-05-17T14:35:49.239Z,63.10
2023-05-17T14:37:53.285Z,62.30
2023-05-17T14:40:05.782Z,64.38
2023-05-17T14:42:09.362Z,63.03
2023-05-17T14:44:12.151Z,62.69
2023-05-17T14:46:15.129Z,61.98
2023-05-17T14:48:17.902Z,62.95
2023-05-17T14:50:20.817Z,62.87
2023-05-17T14:52:23.690Z,62.67
2023-05-17T14:54:29.793Z,62.60
2023-05-17T14:56:32.907Z,61.47
2023-05-17T14:58:35.780Z,61.05
2023-05-17T15:00:38.563Z,59.05
2023-05-17T15:02:41.323Z,58.50
2023-05-17T15:04:44.138Z,59.52
2023-05-17T15:06:47.030Z,59.10
2023-05-17T15:08:49.695Z,58.63
2023-05-17T15:10:54.493Z,59.37
2023-05-17T15:12:57.409Z,57.43
2023-05-17T15:15:00.157Z,57.01
2023-05-17T15:17:04.218Z,58.30
2023-05-17T15:19:07.660Z,57.62
2023-05-17T15:21:11.373Z,58.29
2023-05-17T15:23:14.021Z,58.69
2023-05-17T15:25:16.954Z,59.77
2023-05-17T15:27:21.055Z,60.41
2023-05-17T15:29:23.750Z,61.48
2023-05-17T15:31:28.568Z,62.10
2023-05-17T15:33:32.216Z,62.46
2023-05-17T15:35:35.070Z,64.29
2023-05-17T15:37:37.876Z,63.79
2023-05-17T15:39:40.566Z,63.69
2023-05-17T15:41:45.511Z,63.61
2023-05-17T15:43:49.613Z,63.18
2023-05-17T15:45:52.349Z,63.69
2023-05-17T15:47:56.603Z,63.97
2023-05-17T15:49:59.363Z,63.93
2023-05-17T15:52:02.126Z,63.50
2023-05-17T15:54:05.153Z,63.14
2023-05-17T15:56:10.016Z,62.34
2023-05-17T15:58:12.699Z,61.61
2023-05-17T16:00:17.420Z,60.92
2023-05-17T16:02:20.104Z,60.43
2023-05-17T16:04:22.837Z,60.42
2023-05-17T16:06:25.858Z,59.70
2023-05-17T16:08:28.622Z,60.83
2023-05-17T16:10:31.295Z,61.23
2023-05-17T16:12:33.979Z,62.96
2023-05-17T16:14:37.161Z,62.50
2023-05-17T16:16:42.106Z,62.93
2023-05-17T16:18:45.375Z,62.32
2023-05-17T16:20:48.230Z,64.10
2023-05-17T16:22:52.017Z,63.20
2023-05-17T16:24:55.240Z,62.36
2023-05-17T16:26:59.028Z,63.05
2023-05-17T16:29:01.797Z,62.75
2023-05-17T16:31:05.533Z,62.09
2023-05-17T16:33:09.721Z,60.28
2023-05-17T16:35:12.757Z,59.68
2023-05-17T16:37:15.809Z,59.50
2023-05-17T16:39:18.478Z,60.60
2023-05-17T16:41:21.255Z,60.85
2023-05-17T16:43:23.996Z,60.99
2023-05-17T16:45:26.630Z,61.61
2023-05-17T16:47:29.498Z,62.78
2023-05-17T16:49:33.603Z,63.59
2023-05-17T16:51:36.354Z,63.98
2023-05-17T16:53:39.089Z,62.63
2023-05-17T16:55:42.117Z,62.97
2023-05-17T16:57:44.803Z,61.80
2023-05-17T16:59:47.502Z,62.11
2023-05-17T17:01:50.261Z,62.34
2023-05-17T17:03:53.029Z,61.79
2023-05-17T17:05:57.087Z,61.82
2023-05-17T17:07:59.893Z,61.59
2023-05-17T17:10:02.560Z,61.02
2023-05-17T17:12:20.175Z,61.15
2023-05-17T17:14:26.130Z,62.20
2023-05-17T17:16:29.288Z,61.89
2023-05-17T17:18:32.274Z,62.24
2023-05-17T17:20:35.058Z,61.93
2023-05-17T17:22:39.184Z,61.77
2023-05-17T17:24:41.889Z,62.22
2023-05-17T17:26:45.071Z,62.14
2023-05-17T17:28:47.741Z,61.79
2023-05-17T17:30:50.744Z,61.93
2023-05-17T17:32:53.514Z,62.19
2023-05-17T17:34:56.338Z,62.33
2023-05-17T17:36:59.257Z,63.08
2023-05-17T17:39:03.350Z,62.63
2023-05-17T17:41:06.312Z,63.20
2023-05-17T17:43:09.142Z,62.64
2023-05-17T17:45:12.108Z,63.42
2023-05-17T17:47:14.963Z,63.29
2023-05-17T17:49:17.706Z,63.35
2023-05-17T17:51:20.389Z,62.81
2023-05-17T17:53:23.323Z,62.58
2023-05-17T17:55:27.611Z,62.36
2023-05-17T17:57:31.916Z,62.61
2023-05-17T17:59:34.792Z,63.41
2023-05-17T18:01:38.313Z,62.54
2023-05-17T18:03:41.043Z,62.29
2023-05-17T18:05:43.860Z,62.62
2023-05-17T18:07:46.568Z,63.36
2023-05-17T18:09:49.396Z,63.02
2023-05-17T18:11:53.434Z,62.26
2023-05-17T18:13:56.538Z,63.37
2023-05-17T18:15:59.933Z,63.92
2023-05-17T18:18:02.690Z,64.04
2023-05-17T18:20:07.115Z,62.70
2023-05-17T18:22:09.774Z,63.61
2023-05-17T18:24:12.501Z,63.82
2023-05-17T18:26:15.206Z,64.50
2023-05-17T18:28:26.865Z,64.00
2023-05-17T18:30:40.763Z,64.49
2023-05-17T18:32:43.534Z,64.35
2023-05-17T18:34:46.408Z,65.01
2023-05-17T18:36:49.117Z,65.78
2023-05-17T18:38:52.488Z,66.10
2023-05-17T18:40:55.206Z,67.68
2023-05-17T18:42:57.902Z,67.02
2023-05-17T18:45:01.989Z,66.68
2023-05-17T18:47:04.791Z,66.72
2023-05-17T18:49:07.719Z,68.92
2023-05-17T18:51:10.621Z,70.74
2023-05-17T18:53:14.495Z,70.84
2023-05-17T18:55:17.258Z,71.26
2023-05-17T18:57:20.063Z,74.68
2023-05-17T18:59:22.746Z,75.96
2023-05-17T19:01:27.360Z,71.29
2023-05-17T19:03:30.118Z,72.03
2023-05-17T19:05:32.999Z,70.94
2023-05-17T19:07:35.728Z,77.21
2023-05-17T19:09:38.811Z,73.66
2023-05-17T19:11:42.147Z,78.01
2023-05-17T19:13:45.105Z,75.10
2023-05-17T19:15:48.739Z,73.16
2023-05-17T19:17:52.902Z,72.70
2023-05-17T19:19:55.660Z,75.33
2023-05-17T19:22:00.436Z,76.36
2023-05-17T19:24:03.454Z,76.62
2023-05-17T19:26:06.146Z,76.12
2023-05-17T19:28:08.893Z,75.20
2023-05-17T19:30:12.485Z,75.85
2023-05-17T19:32:15.380Z,77.41
2023-05-17T19:34:19.384Z,76.94
2023-05-17T19:36:22.043Z,77.68
2023-05-17T19:38:24.736Z,79.15
2023-05-17T19:40:27.825Z,75.41
2023-05-17T19:42:30.903Z,74.30
2023-05-17T19:44:33.769Z,77.67
2023-05-17T19:46:36.500Z,79.30
2023-05-17T19:48:39.920Z,76.47
2023-05-17T19:50:44.111Z,75.68
2023-05-17T19:52:47.058Z,80.37
2023-05-17T19:54:49.726Z,81.69
2023-05-17T19:56:52.476Z,81.33
2023-05-17T19:58:55.252Z,79.85
2023-05-17T20:00:57.893Z,82.62
2023-05-17T20:03:00.970Z,85.28
2023-05-17T20:05:03.810Z,85.80
2023-05-17T20:07:08.491Z,83.07
2023-05-17T20:09:11.152Z,81.13
2023-05-17T20:11:14.132Z,85.63
2023-05-17T20:13:18.987Z,86.70
2023-05-17T20:15:22.776Z,85.36
2023-05-17T20:17:25.522Z,86.43
2023-05-17T20:19:28.357Z,86.99
2023-05-17T20:21:31.780Z,88.61
2023-05-17T20:23:36.174Z,89.11
2023-05-17T20:25:40.973Z,89.06
2023-05-17T20:27:44.660Z,90.50
2023-05-17T20:29:47.385Z,91.24
2023-05-17T20:31:50.677Z,90.75
2023-05-17T20:33:54.789Z,91.91
2023-05-17T20:35:58.922Z,91.31
2023-05-17T20:38:01.635Z,88.69
2023-05-17T20:40:09.161Z,90.69
2023-05-17T20:42:18.195Z,86.51
2023-05-17T20:44:21.802Z,86.91
2023-05-17T20:46:24.621Z,86.15
2023-05-17T20:48:27.603Z,86.54
2023-05-17T20:50:30.659Z,85.43
2023-05-17T20:52:39.388Z,86.90
2023-05-17T20:54:42.938Z,86.17
2023-05-17T20:56:47.805Z,87.00
2023-05-17T20:58:50.576Z,87.97
2023-05-17T21:00:53.654Z,89.46
2023-05-17T21:02:56.341Z,88.61
2023-05-17T21:05:00.763Z,89.03
2023-05-17T21:07:03.506Z,90.27
2023-05-17T21:09:06.516Z,90.29
2023-05-17T21:11:09.453Z,90.75
2023-05-17T21:13:14.675Z,89.77
2023-05-17T21:15:17.611Z,87.96
2023-05-17T21:17:20.337Z,90.70
2023-05-17T21:19:23.102Z,91.60
2023-05-17T21:21:25.945Z,90.38
2023-05-17T21:23:28.742Z,91.29
2023-05-17T21:25:31.746Z,91.17
2023-05-17T21:27:35.057Z,86.28
2023-05-17T21:29:39.171Z,85.45
2023-05-17T21:31:41.888Z,87.45
2023-05-17T21:33:44.679Z,88.29
2023-05-17T21:35:47.456Z,87.48
2023-05-17T21:37:50.359Z,87.95
2023-05-17T21:39:53.044Z,88.25
2023-05-17T21:41:55.760Z,87.14
2023-05-17T21:43:58.457Z,88.44
2023-05-17T21:46:02.658Z,90.51
2023-05-17T21:48:06.119Z,86.62
2023-05-17T21:50:09.264Z,89.86
2023-05-17T21:52:12.063Z,84.53
2023-05-17T21:54:14.823Z,92.03
2023-05-17T21:56:17.660Z,87.01
2023-05-17T21:58:21.270Z,88.33
2023-05-17T22:00:26.933Z,89.29
2023-05-17T22:02:31.175Z,90.02
2023-05-17T22:04:33.912Z,87.66
2023-05-17T22:06:36.727Z,87.22
2023-05-17T22:08:42.171Z,86.36
2023-05-17T22:10:44.847Z,88.89
2023-05-17T22:12:54.186Z,90.33
2023-05-17T22:14:57.489Z,92.32
2023-05-17T22:17:00.366Z,90.94
2023-05-17T22:19:06.034Z,92.55
2023-05-17T22:21:08.910Z,90.11
2023-05-17T22:23:11.880Z,92.10
2023-05-17T22:25:15.793Z,90.78
2023-05-17T22:27:19.766Z,86.99
2023-05-17T22:29:22.601Z,93.30
2023-05-17T22:31:26.215Z,88.64
2023-05-17T22:33:31.054Z,89.15
2023-05-17T22:35:35.152Z,87.22
2023-05-17T22:37:37.897Z,90.57
2023-05-17T22:39:41.797Z,92.95
2023-05-17T22:41:44.576Z,93.86
2023-05-17T22:43:47.312Z,94.63
2023-05-17T22:45:50.640Z,95.58
2023-05-17T22:47:54.210Z,95.04
2023-05-17T22:49:57.639Z,95.09
2023-05-17T22:52:05.328Z,95.17
2023-05-17T22:54:08.074Z,97.02
2023-05-17T22:56:10.777Z,98.76
2023-05-17T22:58:13.495Z,98.68
2023-05-17T23:00:17.226Z,99.58
2023-05-17T23:02:20.040Z,98.89
2023-05-17T23:04:25.876Z,96.41
2023-05-17T23:06:32.067Z,97.69
2023-05-17T23:08:36.274Z,97.53
2023-05-17T23:10:38.921Z,97.19
2023-05-17T23:12:41.609Z,99.54
2023-05-17T23:14:44.383Z,100.00
2023-05-17T23:16:47.041Z,100.00
2023-05-17T23:18:49.718Z,100.00
2023-05-17T23:20:52.574Z,100.00
2023-05-17T23:22:55.264Z,100.00
2023-05-17T23:25:00.297Z,100.00
2023-05-17T23:27:03.059Z,100.00
2023-05-17T23:29:05.769Z,100.00
2023-05-17T23:31:08.508Z,100.00
2023-05-17T23:33:11.622Z,100.00
2023-05-17T23:35:14.312Z,100.00
2023-05-17T23:37:17.240Z,100.00
2023-05-17T23:39:19.986Z,100.00
2023-05-17T23:41:25.379Z,97.60
2023-05-17T23:43:28.190Z,95.32
2023-05-17T23:45:32.291Z,93.41
2023-05-17T23:47:35.267Z,91.73
2023-05-17T23:49:38.054Z,92.80
2023-05-17T23:51:40.890Z,92.46
2023-05-17T23:53:43.588Z,92.48
2023-05-17T23:55:46.579Z,90.79
2023-05-17T23:57:50.714Z,91.23
2023-05-17T23:59:53.544Z,91.29
